Marseillais 6 — FQSJ — position and weather

sailwx.info

Track history (hours):
 
Tides and Currents Weather Stations Pressure Air Temp Water Temp Dewpoint Dewpoint Depression Visibility Wind Speed Wind Dir Waves Ship Positions

Marseillais 6

Last reported at 2017-Mar-28 13:33 UTC. Time now 2017-Mar-28 13:54 UTC.
Position N 43°26' E 004°54'.

Length 35 m; draft 5 m.

Type: Tug. MMSI: 227016900.

Date/timePositionNaut miles runAvg speedWind from/ knotsBaromVisibWave heightAir tempDewpointWater temp
2017-Mar-28 13:33N 43°26' E 004°54'0 0.0
2017-Mar-28 11:29N 43°26' E 004°54'0 0.0
2017-Mar-28 10:18N 43°26' E 004°54'0 0.0
2017-Mar-28 09:32N 43°26' E 004°54'2 2.0
2017-Mar-28 08:30N 43°24' E 004°55'3 2.9
2017-Mar-28 07:33N 43°24' E 004°59'0 0.0
2017-Mar-28 06:33N 43°24' E 004°59'0 0.0
2017-Mar-28 05:33N 43°24' E 004°59'0 0.0
2017-Mar-28 04:33N 43°24' E 004°59'4 2.0
2017-Mar-28 02:30N 43°24' E 004°53'4 4.4
2017-Mar-28 01:34N 43°24' E 004°59'0 0.0
2017-Mar-28 00:34N 43°24' E 004°59'0 0.0
2017-Mar-27 23:33N 43°24' E 004°59'0 0.0
2017-Mar-27 22:33N 43°24' E 004°59'0 0.0
2017-Mar-27 21:33N 43°24' E 004°59'0 0.0
2017-Mar-27 20:33N 43°24' E 004°59'0 0.0
2017-Mar-27 19:33N 43°24' E 004°59'0 0.0
2017-Mar-27 18:33N 43°24' E 004°59'4 3.0
2017-Mar-27 17:03N 43°25' E 004°53'1 1.2
2017-Mar-27 16:33N 43°24' E 004°53'4 4.0
2017-Mar-27 15:33N 43°23' E 004°59'1 0.5
2017-Mar-27 14:34N 43°24' E 004°59'0 0.0
2017-Mar-27 13:34N 43°24' E 004°59'0 0.0
2017-Mar-27 12:33N 43°24' E 004°59'1 1.3
2017-Mar-27 11:33N 43°23' E 004°57'6 4.7
2017-Mar-27 10:21N 43°27' E 004°51'2 2.8
2017-Mar-27 09:32N 43°26' E 004°54'2 1.0
2017-Mar-27 07:05N 43°24' E 004°56'0 0.3
2017-Mar-27 06:30N 43°24' E 004°56'3 3.0
2017-Mar-27 05:33N 43°24' E 004°60'1 0.5
2017-Mar-27 04:34N 43°24' E 004°59'0 0.0
2017-Mar-27 03:34N 43°24' E 004°59'0 0.0
2017-Mar-27 02:34N 43°24' E 004°59'0 0.0
2017-Mar-27 01:33N 43°24' E 004°59'0 0.0
2017-Mar-27 00:33N 43°24' E 004°59'0 0.0
2017-Mar-26 23:33N 43°24' E 004°59'0 0.0
2017-Mar-26 22:33N 43°24' E 004°59'0 0.0
2017-Mar-26 21:33N 43°24' E 004°59'0 0.0
2017-Mar-26 20:33N 43°24' E 004°59'0 0.0
2017-Mar-26 19:33N 43°24' E 004°59'1 0.6
2017-Mar-26 17:33N 43°24' E 004°58'1 1.1
2017-Mar-26 16:33N 43°24' E 004°59'0 0.0
2017-Mar-26 15:34N 43°24' E 004°59'0 0.0
2017-Mar-26 14:33N 43°24' E 004°59'3 3.2
2017-Mar-26 13:33N 43°24' E 004°55'2 1.3
2017-Mar-26 12:20N 43°24' E 004°57'2 2.7
2017-Mar-26 11:33N 43°24' E 004°60'1 0.5
2017-Mar-26 10:34N 43°24' E 004°59'0 0.0
2017-Mar-26 09:34N 43°24' E 004°59'0 0.0
2017-Mar-26 08:33N 43°24' E 004°59'0 0.0
2017-Mar-26 07:33N 43°24' E 004°59'0 0.0
2017-Mar-26 06:33N 43°24' E 004°59'0 0.0
2017-Mar-26 05:33N 43°24' E 004°59'0 0.0
2017-Mar-26 04:33N 43°24' E 004°59'0 0.0
2017-Mar-26 03:33N 43°24' E 004°59'0 0.0
2017-Mar-26 02:33N 43°24' E 004°59'0 0.0
2017-Mar-26 01:33N 43°24' E 004°59'0 0.0
2017-Mar-26 00:33N 43°24' E 004°59'0 0.0
2017-Mar-25 23:33N 43°24' E 004°59'0 0.0
2017-Mar-25 22:33N 43°24' E 004°59'0 0.0
2017-Mar-25 21:32N 43°24' E 004°59'0 0.0
2017-Mar-25 20:33N 43°24' E 004°59'0 0.0
2017-Mar-25 19:33N 43°24' E 004°59'1 0.6
2017-Mar-25 18:33N 43°23' E 004°59'1 0.6
2017-Mar-25 17:33N 43°24' E 004°59'0 0.0
2017-Mar-25 16:33N 43°24' E 004°59'0 0.0
2017-Mar-25 15:33N 43°24' E 004°59'2 0.9
2017-Mar-25 13:23N 43°23' E 004°56'2 2.3
2017-Mar-25 12:33N 43°24' E 004°59'0 0.0
2017-Mar-25 11:33N 43°24' E 004°59'0 0.3
2017-Mar-25 10:33N 43°24' E 004°59'0 0.3
2017-Mar-25 09:33N 43°24' E 004°59'0 0.0
2017-Mar-25 08:33N 43°24' E 004°59'0 0.0
2017-Mar-25 07:33N 43°24' E 004°59'0 0.0
2017-Mar-25 06:34N 43°24' E 004°59'0 0.0
2017-Mar-25 05:33N 43°24' E 004°59'0 0.0
2017-Mar-25 04:33N 43°24' E 004°59'1 0.9
2017-Mar-25 03:33N 43°23' E 004°58'1 0.9
2017-Mar-25 02:33N 43°24' E 004°59'0 0.0
2017-Mar-25 01:33N 43°24' E 004°59'0 0.0
2017-Mar-25 00:33N 43°24' E 004°59'0 0.0
2017-Mar-24 23:33N 43°24' E 004°59'0 0.0
2017-Mar-24 22:33N 43°24' E 004°59'0 0.0
2017-Mar-24 21:33N 43°24' E 004°59'0 0.0
2017-Mar-24 20:33N 43°24' E 004°59'0 0.0
2017-Mar-24 19:34N 43°24' E 004°59'0 0.0
2017-Mar-24 18:33N 43°24' E 004°59'0 0.0
2017-Mar-24 17:33N 43°24' E 004°59'3 3.1
2017-Mar-24 16:33N 43°24' E 004°55'3 1.7
2017-Mar-24 14:33N 43°24' E 004°59'5 4.1
2017-Mar-24 13:26N 43°25' E 004°53'0 0.1
2017-Mar-24 10:08N 43°26' E 004°54'0 0.0
2017-Mar-24 09:17N 43°26' E 004°54'3 1.7
2017-Mar-24 07:31N 43°24' E 004°57'2 1.7
2017-Mar-24 06:33N 43°24' E 004°59'4 2.0
2017-Mar-24 04:29N 43°26' E 004°54'1 0.1
2017-Mar-23 17:16N 43°25' E 004°53'2 1.2
2017-Mar-23 15:20N 43°24' E 004°56'2 0.4
2017-Mar-23 09:12N 43°26' E 004°54'0 0.0
2017-Mar-22 10:10N 43°26' E 004°54'0 0.0
2017-Mar-22 03:11N 43°26' E 004°54'0 0.0
2017-Mar-21 15:03N 43°26' E 004°54'0 0.0
2017-Mar-21 13:04N 43°26' E 004°54'0 0.0
2017-Mar-21 12:21N 43°26' E 004°54'0 0.0
2017-Mar-21 11:04N 43°26' E 004°54'0 0.0
2017-Mar-21 09:04N 43°26' E 004°54'0 0.0
2017-Mar-21 08:24N 43°26' E 004°54'0 0.0
2017-Mar-21 07:04N 43°26' E 004°54'0 0.0
2017-Mar-21 05:05N 43°26' E 004°54'0 0.0
2017-Mar-21 03:05N 43°26' E 004°54'0 0.0
2017-Mar-20 23:06N 43°26' E 004°54'0 0.0
2017-Mar-20 21:06N 43°26' E 004°54'0 0.0
2017-Mar-20 19:07N 43°26' E 004°54'0 0.0
2017-Mar-20 17:07N 43°26' E 004°54'0 0.0
2017-Mar-20 15:07N 43°26' E 004°54'0 0.0
2017-Mar-20 13:16N 43°26' E 004°54'  
Track history (hours):
 
Tides and Currents Weather Stations Pressure Air Temp Water Temp Dewpoint Dewpoint Depression Visibility Wind Speed Wind Dir Waves Ship Positions

Marseillais 6

Last reported at 2017-Mar-28 13:33 UTC. Time now 2017-Mar-28 13:54 UTC.
Position N 43°26' E 004°54'.

Length 35 m; draft 5 m.

Type: Tug. MMSI: 227016900.

Date/timePositionNaut miles runAvg speedWind from/ knotsBaromVisibWave heightAir tempDewpointWater temp
2017-Mar-28 13:33N 43°26' E 004°54'0 0.0
2017-Mar-28 11:29N 43°26' E 004°54'0 0.0
2017-Mar-28 10:18N 43°26' E 004°54'0 0.0
2017-Mar-28 09:32N 43°26' E 004°54'2 2.0
2017-Mar-28 08:30N 43°24' E 004°55'3 2.9
2017-Mar-28 07:33N 43°24' E 004°59'0 0.0
2017-Mar-28 06:33N 43°24' E 004°59'0 0.0
2017-Mar-28 05:33N 43°24' E 004°59'0 0.0
2017-Mar-28 04:33N 43°24' E 004°59'4 2.0
2017-Mar-28 02:30N 43°24' E 004°53'4 4.4
2017-Mar-28 01:34N 43°24' E 004°59'0 0.0
2017-Mar-28 00:34N 43°24' E 004°59'0 0.0
2017-Mar-27 23:33N 43°24' E 004°59'0 0.0
2017-Mar-27 22:33N 43°24' E 004°59'0 0.0
2017-Mar-27 21:33N 43°24' E 004°59'0 0.0
2017-Mar-27 20:33N 43°24' E 004°59'0 0.0
2017-Mar-27 19:33N 43°24' E 004°59'0 0.0
2017-Mar-27 18:33N 43°24' E 004°59'4 3.0
2017-Mar-27 17:03N 43°25' E 004°53'1 1.2
2017-Mar-27 16:33N 43°24' E 004°53'4 4.0
2017-Mar-27 15:33N 43°23' E 004°59'1 0.5
2017-Mar-27 14:34N 43°24' E 004°59'0 0.0
2017-Mar-27 13:34N 43°24' E 004°59'0 0.0
2017-Mar-27 12:33N 43°24' E 004°59'1 1.3
2017-Mar-27 11:33N 43°23' E 004°57'6 4.7
2017-Mar-27 10:21N 43°27' E 004°51'2 2.8
2017-Mar-27 09:32N 43°26' E 004°54'2 1.0
2017-Mar-27 07:05N 43°24' E 004°56'0 0.3
2017-Mar-27 06:30N 43°24' E 004°56'3 3.0
2017-Mar-27 05:33N 43°24' E 004°60'1 0.5
2017-Mar-27 04:34N 43°24' E 004°59'0 0.0
2017-Mar-27 03:34N 43°24' E 004°59'0 0.0
2017-Mar-27 02:34N 43°24' E 004°59'0 0.0
2017-Mar-27 01:33N 43°24' E 004°59'0 0.0
2017-Mar-27 00:33N 43°24' E 004°59'0 0.0
2017-Mar-26 23:33N 43°24' E 004°59'0 0.0
2017-Mar-26 22:33N 43°24' E 004°59'0 0.0
2017-Mar-26 21:33N 43°24' E 004°59'0 0.0
2017-Mar-26 20:33N 43°24' E 004°59'0 0.0
2017-Mar-26 19:33N 43°24' E 004°59'1 0.6
2017-Mar-26 17:33N 43°24' E 004°58'1 1.1
2017-Mar-26 16:33N 43°24' E 004°59'0 0.0
2017-Mar-26 15:34N 43°24' E 004°59'0 0.0
2017-Mar-26 14:33N 43°24' E 004°59'3 3.2
2017-Mar-26 13:33N 43°24' E 004°55'2 1.3
2017-Mar-26 12:20N 43°24' E 004°57'2 2.7
2017-Mar-26 11:33N 43°24' E 004°60'1 0.5
2017-Mar-26 10:34N 43°24' E 004°59'0 0.0
2017-Mar-26 09:34N 43°24' E 004°59'0 0.0
2017-Mar-26 08:33N 43°24' E 004°59'0 0.0
2017-Mar-26 07:33N 43°24' E 004°59'0 0.0
2017-Mar-26 06:33N 43°24' E 004°59'0 0.0
2017-Mar-26 05:33N 43°24' E 004°59'0 0.0
2017-Mar-26 04:33N 43°24' E 004°59'0 0.0
2017-Mar-26 03:33N 43°24' E 004°59'0 0.0
2017-Mar-26 02:33N 43°24' E 004°59'0 0.0
2017-Mar-26 01:33N 43°24' E 004°59'0 0.0
2017-Mar-26 00:33N 43°24' E 004°59'0 0.0
2017-Mar-25 23:33N 43°24' E 004°59'0 0.0
2017-Mar-25 22:33N 43°24' E 004°59'0 0.0
2017-Mar-25 21:32N 43°24' E 004°59'0 0.0
2017-Mar-25 20:33N 43°24' E 004°59'0 0.0
2017-Mar-25 19:33N 43°24' E 004°59'1 0.6
2017-Mar-25 18:33N 43°23' E 004°59'1 0.6
2017-Mar-25 17:33N 43°24' E 004°59'0 0.0
2017-Mar-25 16:33N 43°24' E 004°59'0 0.0
2017-Mar-25 15:33N 43°24' E 004°59'2 0.9
2017-Mar-25 13:23N 43°23' E 004°56'2 2.3
2017-Mar-25 12:33N 43°24' E 004°59'0 0.0
2017-Mar-25 11:33N 43°24' E 004°59'0 0.3
2017-Mar-25 10:33N 43°24' E 004°59'0 0.3
2017-Mar-25 09:33N 43°24' E 004°59'0 0.0
2017-Mar-25 08:33N 43°24' E 004°59'0 0.0
2017-Mar-25 07:33N 43°24' E 004°59'0 0.0
2017-Mar-25 06:34N 43°24' E 004°59'0 0.0
2017-Mar-25 05:33N 43°24' E 004°59'0 0.0
2017-Mar-25 04:33N 43°24' E 004°59'1 0.9
2017-Mar-25 03:33N 43°23' E 004°58'1 0.9
2017-Mar-25 02:33N 43°24' E 004°59'0 0.0
2017-Mar-25 01:33N 43°24' E 004°59'0 0.0
2017-Mar-25 00:33N 43°24' E 004°59'0 0.0
2017-Mar-24 23:33N 43°24' E 004°59'0 0.0
2017-Mar-24 22:33N 43°24' E 004°59'0 0.0
2017-Mar-24 21:33N 43°24' E 004°59'0 0.0
2017-Mar-24 20:33N 43°24' E 004°59'0 0.0
2017-Mar-24 19:34N 43°24' E 004°59'0 0.0
2017-Mar-24 18:33N 43°24' E 004°59'0 0.0
2017-Mar-24 17:33N 43°24' E 004°59'3 3.1
2017-Mar-24 16:33N 43°24' E 004°55'3 1.7
2017-Mar-24 14:33N 43°24' E 004°59'5 4.1
2017-Mar-24 13:26N 43°25' E 004°53'0 0.1
2017-Mar-24 10:08N 43°26' E 004°54'0 0.0
2017-Mar-24 09:17N 43°26' E 004°54'3 1.7
2017-Mar-24 07:31N 43°24' E 004°57'2 1.7
2017-Mar-24 06:33N 43°24' E 004°59'4 2.0
2017-Mar-24 04:29N 43°26' E 004°54'1 0.1
2017-Mar-23 17:16N 43°25' E 004°53'2 1.2
2017-Mar-23 15:20N 43°24' E 004°56'2 0.4
2017-Mar-23 09:12N 43°26' E 004°54'0 0.0
2017-Mar-22 10:10N 43°26' E 004°54'0 0.0
2017-Mar-22 03:11N 43°26' E 004°54'0 0.0
2017-Mar-21 15:03N 43°26' E 004°54'0 0.0
2017-Mar-21 13:04N 43°26' E 004°54'0 0.0
2017-Mar-21 12:21N 43°26' E 004°54'0 0.0
2017-Mar-21 11:04N 43°26' E 004°54'0 0.0
2017-Mar-21 09:04N 43°26' E 004°54'0 0.0
2017-Mar-21 08:24N 43°26' E 004°54'0 0.0
2017-Mar-21 07:04N 43°26' E 004°54'0 0.0
2017-Mar-21 05:05N 43°26' E 004°54'0 0.0
2017-Mar-21 03:05N 43°26' E 004°54'0 0.0
2017-Mar-20 23:06N 43°26' E 004°54'0 0.0
2017-Mar-20 21:06N 43°26' E 004°54'0 0.0
2017-Mar-20 19:07N 43°26' E 004°54'0 0.0
2017-Mar-20 17:07N 43°26' E 004°54'0 0.0
2017-Mar-20 15:07N 43°26' E 004°54'0 0.0
2017-Mar-20 13:16N 43°26' E 004°54'  

Dump ship's entire track history